createdAt,value
2023-02-03T00:00:17.044Z,199.87
2023-02-03T00:02:45.605Z,41.70
2023-02-03T00:05:14.182Z,11.70
2023-02-03T00:07:44.554Z,14.33
2023-02-03T00:10:13.316Z,12.20
2023-02-03T00:12:43.497Z,11.47
2023-02-03T00:15:13.826Z,13.07
2023-02-03T00:17:42.235Z,12.73
2023-02-03T00:20:11.790Z,10.40
2023-02-03T00:22:40.240Z,13.43
2023-02-03T00:25:09.107Z,11.60
2023-02-03T00:27:37.580Z,7.90
2023-02-03T00:30:08.478Z,10.67
2023-02-03T00:32:36.947Z,10.77
2023-02-03T00:35:06.201Z,11.87
2023-02-03T00:37:34.749Z,12.27
2023-02-03T00:40:03.227Z,10.37
2023-02-03T00:42:31.817Z,10.83
2023-02-03T00:45:00.382Z,8.17
2023-02-03T00:47:30.460Z,9.53
2023-02-03T00:49:58.881Z,9.80
2023-02-03T00:52:27.420Z,7.77
2023-02-03T00:54:55.876Z,9.87
2023-02-03T00:57:24.248Z,10.93
2023-02-03T00:59:52.693Z,10.13
2023-02-03T01:02:21.223Z,10.37
2023-02-03T01:04:51.351Z,12.57
2023-02-03T01:07:20.319Z,11.47
2023-02-03T01:09:48.719Z,12.90
2023-02-03T01:12:17.149Z,11.33
2023-02-03T01:14:45.707Z,11.70
2023-02-03T01:17:14.140Z,13.80
2023-02-03T01:19:42.518Z,11.90
2023-02-03T01:22:12.351Z,11.97
2023-02-03T01:24:40.859Z,10.37
2023-02-03T01:27:09.376Z,17.73
2023-02-03T01:29:38.738Z,11.53
2023-02-03T01:32:07.240Z,12.07
2023-02-03T01:34:35.738Z,11.67
2023-02-03T01:37:04.277Z,12.30
2023-02-03T01:39:34.171Z,13.87
2023-02-03T01:42:02.554Z,15.00
2023-02-03T01:44:43.352Z,11.63
2023-02-03T01:47:26.548Z,15.30
2023-02-03T01:50:01.324Z,15.33
2023-02-03T01:52:30.674Z,10.13
2023-02-03T01:55:04.367Z,13.03
2023-02-03T01:57:36.710Z,11.60
2023-02-03T02:00:08.398Z,13.67
2023-02-03T02:02:37.773Z,14.50
2023-02-03T02:05:08.761Z,10.93
2023-02-03T02:07:39.116Z,12.10
2023-02-03T02:10:09.953Z,10.73
2023-02-03T02:12:38.734Z,11.27
2023-02-03T02:15:08.187Z,13.30
2023-02-03T02:18:00.213Z,14.50
2023-02-03T02:21:00.111Z,9.30
2023-02-03T02:24:01.482Z,13.57
2023-02-03T02:26:58.429Z,13.37
2023-02-03T02:29:54.289Z,12.50
2023-02-03T02:32:33.163Z,8.63
2023-02-03T02:35:09.714Z,10.10
2023-02-03T02:37:44.827Z,9.93
2023-02-03T02:40:22.875Z,11.23
2023-02-03T02:43:10.200Z,9.70
2023-02-03T02:45:46.761Z,12.07
2023-02-03T02:48:22.957Z,9.93
2023-02-03T02:50:56.687Z,11.00
2023-02-03T02:53:29.909Z,10.73
2023-02-03T02:56:00.099Z,11.10
2023-02-03T02:58:30.981Z,10.07
2023-02-03T03:00:59.868Z,15.73
2023-02-03T03:03:29.654Z,8.53
2023-02-03T03:06:04.378Z,8.83
2023-02-03T03:08:39.680Z,11.30
2023-02-03T03:11:08.698Z,11.33
2023-02-03T03:13:41.103Z,11.53
2023-02-03T03:16:12.270Z,8.33
2023-02-03T03:18:46.080Z,9.60
2023-02-03T03:21:17.997Z,11.20
2023-02-03T03:23:49.955Z,13.57
2023-02-03T03:26:24.880Z,12.53
2023-02-03T03:28:58.670Z,10.10
2023-02-03T03:31:27.335Z,11.77
2023-02-03T03:33:57.200Z,13.23
2023-02-03T03:36:32.104Z,14.53
2023-02-03T03:39:05.547Z,14.33
2023-02-03T03:41:42.819Z,11.00
2023-02-03T03:44:18.060Z,20.50
2023-02-03T03:46:51.810Z,17.13
2023-02-03T03:49:24.958Z,18.90
2023-02-03T03:51:57.988Z,11.63
2023-02-03T03:54:29.242Z,8.23
2023-02-03T03:57:02.345Z,7.83
2023-02-03T03:59:33.895Z,8.33
2023-02-03T04:02:05.119Z,8.97
2023-02-03T04:04:38.909Z,11.97
2023-02-03T04:07:07.329Z,6.97
2023-02-03T04:09:37.210Z,7.97
2023-02-03T04:12:06.477Z,10.93
2023-02-03T04:14:38.924Z,10.10
2023-02-03T04:17:07.610Z,10.83
2023-02-03T04:19:37.497Z,7.90
2023-02-03T04:22:05.983Z,10.03
2023-02-03T04:24:34.461Z,10.83
2023-02-03T04:27:05.176Z,12.13
2023-02-03T04:29:34.123Z,13.27
2023-02-03T04:32:02.618Z,13.63
2023-02-03T04:34:31.230Z,12.77
2023-02-03T04:37:01.113Z,7.23
2023-02-03T04:39:29.480Z,7.73
2023-02-03T04:41:57.908Z,9.53
2023-02-03T04:44:26.291Z,12.83
2023-02-03T04:46:54.947Z,11.43
2023-02-03T04:49:23.371Z,8.40
2023-02-03T04:51:52.227Z,7.73
2023-02-03T04:54:22.115Z,6.53
2023-02-03T04:56:50.607Z,7.53
2023-02-03T04:59:19.103Z,7.27
2023-02-03T05:01:47.582Z,7.87
2023-02-03T05:04:20.279Z,7.90
2023-02-03T05:06:48.880Z,7.90
2023-02-03T05:09:17.542Z,4.53
2023-02-03T05:11:47.391Z,6.67
2023-02-03T05:14:15.718Z,7.03
2023-02-03T05:16:44.325Z,6.87
2023-02-03T05:19:13.035Z,5.80
2023-02-03T05:21:41.469Z,6.80
2023-02-03T05:24:10.233Z,8.37
2023-02-03T05:26:38.631Z,8.93
2023-02-03T05:29:08.738Z,8.10
2023-02-03T05:31:37.351Z,6.47
2023-02-03T05:34:06.740Z,6.83
2023-02-03T05:36:35.113Z,7.40
2023-02-03T05:39:03.824Z,8.90
2023-02-03T05:41:49.581Z,6.10
2023-02-03T05:44:19.318Z,7.27
2023-02-03T05:46:47.703Z,8.13
2023-02-03T05:49:16.366Z,9.43
2023-02-03T05:51:45.019Z,10.97
2023-02-03T05:54:14.174Z,7.70
2023-02-03T05:56:42.744Z,6.93
2023-02-03T05:59:11.531Z,8.13
2023-02-03T06:01:44.062Z,9.53
2023-02-03T06:04:12.807Z,10.40
2023-02-03T06:06:41.933Z,6.63
2023-02-03T06:09:10.830Z,12.03
2023-02-03T06:11:39.429Z,8.10
2023-02-03T06:14:07.887Z,8.53
2023-02-03T06:16:36.446Z,13.63
2023-02-03T06:19:06.834Z,9.07
2023-02-03T06:21:35.255Z,9.77
2023-02-03T06:24:05.953Z,9.20
2023-02-03T06:26:34.957Z,9.10
2023-02-03T06:29:04.047Z,9.13
2023-02-03T06:31:32.588Z,9.37
2023-02-03T06:34:02.786Z,7.37
2023-02-03T06:36:32.642Z,11.67
2023-02-03T06:39:01.063Z,8.87
2023-02-03T06:41:30.866Z,7.13
2023-02-03T06:43:59.422Z,10.07
2023-02-03T06:46:30.373Z,9.23
2023-02-03T06:48:58.857Z,10.60
2023-02-03T06:51:27.518Z,10.73
2023-02-03T06:53:58.912Z,10.13
2023-02-03T06:56:27.539Z,8.93
2023-02-03T06:58:55.872Z,7.47
2023-02-03T07:01:26.107Z,8.63
2023-02-03T07:03:58.004Z,7.63
2023-02-03T07:06:29.310Z,9.50
2023-02-03T07:09:01.708Z,10.23
2023-02-03T07:11:31.912Z,9.50
2023-02-03T07:14:00.681Z,7.03
2023-02-03T07:16:29.844Z,6.87
2023-02-03T07:18:58.983Z,6.30
2023-02-03T07:21:27.450Z,9.50
2023-02-03T07:23:56.035Z,10.23
2023-02-03T07:26:26.753Z,10.50
2023-02-03T07:28:55.402Z,7.77
2023-02-03T07:31:24.959Z,6.80
2023-02-03T07:33:53.900Z,8.43
2023-02-03T07:36:22.728Z,7.23
2023-02-03T07:38:51.650Z,11.33
2023-02-03T07:41:20.125Z,5.53
2023-02-03T07:43:50.740Z,7.90
2023-02-03T07:46:19.430Z,7.10
2023-02-03T07:48:48.386Z,6.33
2023-02-03T07:51:18.155Z,4.87
2023-02-03T07:53:47.108Z,6.07
2023-02-03T07:56:15.589Z,4.07
2023-02-03T07:58:44.807Z,8.20
2023-02-03T08:01:17.848Z,4.90
2023-02-03T08:03:46.283Z,4.63
2023-02-03T08:06:14.827Z,5.67
2023-02-03T08:08:44.116Z,4.77
2023-02-03T08:11:13.496Z,6.60
2023-02-03T08:13:42.373Z,5.27
2023-02-03T08:16:10.691Z,5.30
2023-02-03T08:18:40.789Z,5.97
2023-02-03T08:21:09.948Z,4.83
2023-02-03T08:23:41.365Z,5.37
2023-02-03T08:26:09.761Z,5.77
2023-02-03T08:28:38.264Z,5.20
2023-02-03T08:31:11.995Z,6.03
2023-02-03T08:36:27.495Z,7.47
2023-02-03T08:38:55.895Z,7.23
2023-02-03T08:41:24.418Z,9.90
2023-02-03T08:43:54.292Z,7.33
2023-02-03T08:46:22.860Z,6.77
2023-02-03T08:48:55.259Z,8.00
2023-02-03T08:51:24.950Z,5.37
2023-02-03T08:53:54.039Z,6.17
2023-02-03T08:56:22.889Z,9.07
2023-02-03T08:58:51.662Z,7.83
2023-02-03T09:01:20.250Z,6.03
2023-02-03T09:03:49.590Z,5.47
2023-02-03T09:06:22.136Z,5.23
2023-02-03T09:08:51.684Z,7.37
2023-02-03T09:11:20.590Z,5.30
2023-02-03T09:13:49.893Z,7.47
2023-02-03T09:16:21.626Z,10.20
2023-02-03T09:18:50.477Z,9.27
2023-02-03T09:21:32.945Z,7.47
2023-02-03T09:24:06.887Z,5.53
2023-02-03T09:26:35.632Z,7.67
2023-02-03T09:29:04.857Z,9.50
2023-02-03T09:31:36.256Z,6.70
2023-02-03T09:34:05.161Z,7.07
2023-02-03T09:36:35.991Z,5.83
2023-02-03T09:39:07.762Z,8.33
2023-02-03T09:42:05.952Z,6.63
2023-02-03T09:44:43.517Z,7.13
2023-02-03T09:47:17.327Z,7.67
2023-02-03T09:49:51.101Z,9.50
2023-02-03T09:52:25.042Z,6.57
2023-02-03T09:55:00.188Z,7.77
2023-02-03T09:57:31.327Z,8.20
2023-02-03T10:00:03.479Z,8.73
2023-02-03T10:02:55.941Z,6.37
2023-02-03T10:05:32.419Z,9.53
2023-02-03T10:08:09.699Z,7.33
2023-02-03T10:10:42.912Z,6.33
2023-02-03T10:13:24.329Z,7.37
2023-02-03T10:16:18.535Z,7.73
2023-02-03T10:18:52.345Z,8.67
2023-02-03T10:21:33.622Z,9.47
2023-02-03T10:24:08.027Z,7.17
2023-02-03T10:26:37.014Z,9.83
2023-02-03T10:29:14.827Z,6.70
2023-02-03T10:31:47.767Z,8.50
2023-02-03T10:34:19.552Z,9.60
2023-02-03T10:36:57.797Z,6.97
2023-02-03T10:39:42.432Z,10.00
2023-02-03T10:42:13.377Z,12.80
2023-02-03T10:44:45.326Z,10.97
2023-02-03T10:47:25.549Z,9.60
2023-02-03T10:49:56.243Z,10.37
2023-02-03T10:52:32.705Z,6.93
2023-02-03T10:55:08.415Z,7.27
2023-02-03T10:57:39.445Z,7.63
2023-02-03T11:00:22.697Z,10.40
2023-02-03T11:02:58.251Z,6.53
2023-02-03T11:05:29.823Z,6.63
2023-02-03T11:07:59.370Z,17.97
2023-02-03T11:10:36.255Z,22.40
2023-02-03T11:13:21.066Z,12.20
2023-02-03T11:15:58.992Z,11.23
2023-02-03T11:18:36.012Z,10.67
2023-02-03T11:21:10.388Z,19.40
2023-02-03T11:23:44.900Z,11.07
2023-02-03T11:26:17.762Z,12.37
2023-02-03T11:28:49.092Z,7.60
2023-02-03T11:31:20.645Z,8.43
2023-02-03T11:33:51.231Z,9.27
2023-02-03T11:36:20.608Z,11.03
2023-02-03T11:38:49.332Z,8.60
2023-02-03T11:41:24.004Z,9.10
2023-02-03T11:43:58.199Z,7.97
2023-02-03T11:46:27.420Z,5.73
2023-02-03T11:49:08.319Z,5.40
2023-02-03T11:51:46.816Z,7.13
2023-02-03T11:54:27.555Z,6.20
2023-02-03T11:57:30.779Z,7.00
2023-02-03T12:00:26.316Z,8.33
2023-02-03T12:03:17.069Z,5.90
2023-02-03T12:06:10.564Z,5.57
2023-02-03T12:08:58.762Z,6.33
2023-02-03T12:11:39.520Z,7.73
2023-02-03T12:14:22.674Z,5.27
2023-02-03T12:17:27.993Z,6.97
2023-02-03T12:20:17.644Z,6.20
2023-02-03T12:22:56.927Z,5.30
2023-02-03T12:25:38.490Z,4.83
2023-02-03T12:28:32.513Z,4.27
2023-02-03T12:31:12.935Z,5.57
2023-02-03T12:33:46.106Z,5.70
2023-02-03T12:36:20.246Z,4.33
2023-02-03T12:38:53.242Z,5.17
2023-02-03T12:41:27.148Z,4.00
2023-02-03T12:44:00.408Z,4.53
2023-02-03T12:46:33.904Z,6.33
2023-02-03T12:49:07.194Z,5.53
2023-02-03T12:51:41.109Z,5.57
2023-02-03T12:54:23.925Z,7.10
2023-02-03T12:56:56.812Z,3.60
2023-02-03T12:59:29.782Z,3.43
2023-02-03T13:02:04.447Z,2.10
2023-02-03T13:04:38.210Z,1.87
2023-02-03T13:07:14.432Z,1.50
2023-02-03T13:09:51.420Z,2.23
2023-02-03T13:12:31.155Z,2.30
2023-02-03T13:15:08.699Z,1.93
2023-02-03T13:17:45.422Z,2.07
2023-02-03T13:20:20.196Z,2.17
2023-02-03T13:22:48.938Z,2.30
2023-02-03T13:25:25.938Z,2.70
2023-02-03T13:28:08.232Z,2.13
2023-02-03T13:30:50.950Z,2.73
2023-02-03T13:33:47.962Z,2.67
2023-02-03T13:36:49.415Z,2.10
2023-02-03T13:39:35.957Z,2.30
2023-02-03T13:42:22.767Z,2.93
2023-02-03T13:44:56.883Z,2.83
2023-02-03T13:47:30.431Z,1.70
2023-02-03T13:50:03.478Z,2.77
2023-02-03T13:52:37.392Z,1.43
2023-02-03T13:55:07.606Z,1.33
2023-02-03T13:57:39.174Z,1.60
2023-02-03T14:00:32.063Z,1.50
2023-02-03T14:03:00.553Z,2.03
2023-02-03T14:05:45.100Z,1.60
2023-02-03T14:08:52.345Z,1.53
2023-02-03T14:11:44.140Z,1.77
2023-02-03T14:14:45.004Z,4.80
2023-02-03T14:17:51.150Z,4.37
2023-02-03T14:20:51.938Z,3.97
2023-02-03T14:23:26.724Z,3.03
2023-02-03T14:25:59.171Z,3.03
2023-02-03T14:28:33.266Z,3.00
2023-02-03T14:31:07.790Z,3.90
2023-02-03T14:34:07.134Z,3.27
2023-02-03T14:36:44.264Z,3.97
2023-02-03T14:39:55.595Z,4.20
2023-02-03T14:43:11.419Z,4.80
2023-02-03T14:46:41.211Z,4.73
2023-02-03T14:49:31.166Z,3.77
2023-02-03T14:52:29.663Z,3.73
2023-02-03T14:55:15.996Z,5.23
2023-02-03T14:57:49.525Z,3.57
2023-02-03T15:00:31.920Z,5.27
2023-02-03T15:03:26.078Z,3.53
2023-02-03T15:05:58.158Z,8.00
2023-02-03T15:09:00.010Z,6.17
2023-02-03T15:11:31.895Z,4.50
2023-02-03T15:14:19.036Z,3.50
2023-02-03T15:16:53.760Z,5.37
2023-02-03T15:19:26.391Z,10.57
2023-02-03T15:21:55.357Z,6.83
2023-02-03T15:24:26.147Z,10.67
2023-02-03T15:26:56.696Z,9.27
2023-02-03T15:29:30.975Z,10.00
2023-02-03T15:32:05.900Z,11.47
2023-02-03T15:34:40.124Z,9.30
2023-02-03T15:37:14.564Z,13.97
2023-02-03T15:39:51.318Z,10.00
2023-02-03T15:42:25.541Z,8.40
2023-02-03T15:44:59.335Z,11.53
2023-02-03T15:47:33.757Z,10.00
2023-02-03T15:50:08.944Z,9.20
2023-02-03T15:52:44.458Z,10.20
2023-02-03T15:55:21.352Z,6.93
2023-02-03T15:57:52.266Z,8.83
2023-02-03T16:00:35.010Z,11.63
2023-02-03T16:03:07.016Z,17.17
2023-02-03T16:05:38.306Z,12.53
2023-02-03T16:08:37.720Z,10.77
2023-02-03T16:11:27.069Z,7.97
2023-02-03T16:13:59.899Z,9.67
2023-02-03T16:16:31.869Z,8.50
2023-02-03T16:19:04.178Z,12.50
2023-02-03T16:21:36.323Z,9.27
2023-02-03T16:24:06.526Z,9.87
2023-02-03T16:26:38.800Z,11.63
2023-02-03T16:29:33.338Z,13.17
2023-02-03T16:32:19.956Z,9.17
2023-02-03T16:35:06.135Z,13.80
2023-02-03T16:37:53.393Z,9.40
2023-02-03T16:40:41.259Z,8.57
2023-02-03T16:43:31.979Z,10.10
2023-02-03T16:46:19.205Z,10.27
2023-02-03T16:49:05.339Z,49.77
2023-02-03T16:51:41.696Z,56.23
2023-02-03T16:54:14.420Z,41.30
2023-02-03T16:56:43.327Z,10.67
2023-02-03T16:59:13.384Z,10.27
2023-02-03T17:01:42.033Z,9.77
2023-02-03T17:04:11.760Z,6.60
2023-02-03T17:06:41.147Z,9.60
2023-02-03T17:09:09.929Z,11.97
2023-02-03T17:11:38.595Z,10.33
2023-02-03T17:14:07.489Z,11.77
2023-02-03T17:16:37.637Z,14.23
2023-02-03T17:19:06.772Z,10.30
2023-02-03T17:21:35.554Z,10.83
2023-02-03T17:24:04.849Z,10.63
2023-02-03T17:26:34.561Z,14.77
2023-02-03T17:29:05.228Z,13.57
2023-02-03T17:31:35.085Z,14.63
2023-02-03T17:34:05.592Z,14.80
2023-02-03T17:36:34.522Z,22.10
2023-02-03T17:55:33.212Z,15.70
2023-02-03T17:58:02.134Z,15.00
2023-02-03T18:00:30.987Z,13.93
2023-02-03T18:02:59.732Z,21.67
2023-02-03T18:05:30.301Z,22.97
2023-02-03T18:08:03.117Z,14.07
2023-02-03T18:10:38.223Z,18.60
2023-02-03T18:13:06.675Z,13.67
2023-02-03T18:15:35.151Z,18.63
2023-02-03T18:18:03.900Z,12.73
2023-02-03T18:20:35.030Z,14.80
2023-02-03T18:23:03.469Z,16.00
2023-02-03T18:25:31.906Z,12.83
2023-02-03T18:28:00.437Z,24.70
2023-02-03T18:30:29.285Z,15.10
2023-02-03T18:33:00.112Z,15.10
2023-02-03T18:35:29.791Z,15.80
2023-02-03T18:37:59.815Z,10.93
2023-02-03T18:40:28.630Z,16.47
2023-02-03T18:42:57.885Z,12.90
2023-02-03T18:45:26.314Z,16.20
2023-02-03T18:47:54.660Z,14.83
2023-02-03T18:50:23.349Z,15.67
2023-02-03T18:52:54.917Z,12.07
2023-02-03T18:55:25.720Z,14.83
2023-02-03T18:57:54.313Z,18.47
2023-02-03T19:00:22.977Z,13.07
2023-02-03T19:02:52.061Z,10.90
2023-02-03T19:05:21.282Z,17.23
2023-02-03T19:07:50.541Z,15.40
2023-02-03T19:10:19.655Z,14.73
2023-02-03T19:12:49.729Z,17.63
2023-02-03T19:15:19.531Z,18.60
2023-02-03T19:17:48.254Z,14.57
2023-02-03T19:20:17.203Z,17.40
2023-02-03T19:22:46.353Z,13.83
2023-02-03T19:25:14.857Z,14.47
2023-02-03T19:27:43.645Z,15.90
2023-02-03T19:30:14.726Z,14.83
2023-02-03T19:32:43.235Z,15.57
2023-02-03T19:35:12.834Z,21.67
2023-02-03T19:37:41.366Z,12.10
2023-02-03T19:40:11.124Z,16.17
2023-02-03T19:42:39.568Z,32.67
2023-02-03T19:45:08.732Z,31.17
2023-02-03T19:47:39.166Z,27.17
2023-02-03T19:50:08.306Z,51.67
2023-02-03T19:52:36.970Z,84.43
2023-02-03T19:55:06.658Z,17.63
2023-02-03T19:57:35.241Z,16.90
2023-02-03T20:00:04.401Z,11.57
2023-02-03T20:02:33.254Z,15.37
2023-02-03T20:05:03.388Z,16.07
2023-02-03T20:07:34.060Z,13.13
2023-02-03T20:10:03.072Z,10.73
2023-02-03T20:12:32.376Z,16.97
2023-02-03T20:15:01.774Z,12.03
2023-02-03T20:17:30.817Z,14.80
2023-02-03T20:19:59.295Z,9.87
2023-02-03T20:22:29.182Z,14.83
2023-02-03T20:24:58.878Z,14.27
2023-02-03T20:27:27.418Z,12.57
2023-02-03T20:29:56.769Z,13.13
2023-02-03T20:32:25.718Z,10.83
2023-02-03T20:34:54.220Z,17.23
2023-02-03T20:37:23.028Z,11.27
2023-02-03T20:39:52.950Z,9.40
2023-02-03T20:42:21.552Z,11.43
2023-02-03T20:44:50.100Z,7.60
2023-02-03T20:47:22.346Z,12.27
2023-02-03T20:49:51.692Z,10.40
2023-02-03T20:52:22.764Z,7.07
2023-02-03T20:54:53.202Z,7.90
2023-02-03T20:57:23.226Z,8.93
2023-02-03T20:59:51.691Z,10.87
2023-02-03T21:02:23.289Z,9.13
2023-02-03T21:04:57.959Z,12.83
2023-02-03T21:07:30.241Z,8.30
2023-02-03T21:10:01.810Z,10.00
2023-02-03T21:12:30.339Z,9.20
2023-02-03T21:14:58.723Z,9.47
2023-02-03T21:17:28.884Z,10.40
2023-02-03T21:19:57.322Z,11.87
2023-02-03T21:22:27.825Z,12.23
2023-02-03T21:24:58.081Z,12.03
2023-02-03T21:27:33.895Z,10.80
2023-02-03T21:30:04.804Z,8.67
2023-02-03T21:32:40.375Z,8.93
2023-02-03T21:35:24.820Z,8.83
2023-02-03T21:37:57.396Z,8.27
2023-02-03T21:40:28.505Z,10.37
2023-02-03T21:42:59.482Z,8.83
2023-02-03T21:45:35.955Z,7.93
2023-02-03T21:48:25.325Z,16.17
2023-02-03T21:50:55.258Z,6.70
2023-02-03T21:53:35.439Z,12.53
2023-02-03T21:56:19.730Z,11.37
2023-02-03T21:58:52.160Z,9.73
2023-02-03T22:01:23.134Z,13.03
2023-02-03T22:03:54.209Z,9.10
2023-02-03T22:06:26.237Z,9.90
2023-02-03T22:08:56.456Z,5.37
2023-02-03T22:11:27.387Z,13.73
2023-02-03T22:13:57.857Z,12.97
2023-02-03T22:16:26.741Z,7.57
2023-02-03T22:18:55.206Z,6.30
2023-02-03T22:21:24.392Z,10.27
2023-02-03T22:23:53.092Z,8.47
2023-02-03T22:26:22.499Z,9.40
2023-02-03T22:28:51.022Z,7.53
2023-02-03T22:31:21.550Z,6.10
2023-02-03T22:33:50.522Z,8.80
2023-02-03T22:36:20.293Z,6.50
2023-02-03T22:38:48.995Z,5.63
2023-02-03T22:41:18.490Z,9.90
2023-02-03T22:43:46.947Z,6.00
2023-02-03T22:46:15.500Z,8.80
2023-02-03T22:48:45.863Z,6.30
2023-02-03T22:51:14.671Z,6.60
2023-02-03T22:53:43.785Z,12.70
2023-02-03T22:56:12.403Z,4.43
2023-02-03T22:58:40.902Z,6.33
2023-02-03T23:01:09.686Z,6.30
2023-02-03T23:03:38.269Z,6.17
2023-02-03T23:06:09.191Z,7.33
2023-02-03T23:08:38.480Z,5.37
2023-02-03T23:11:07.077Z,7.47
2023-02-03T23:13:35.617Z,4.57
2023-02-03T23:16:04.210Z,10.70
2023-02-03T23:18:33.050Z,6.83
2023-02-03T23:21:02.026Z,7.53
2023-02-03T23:23:31.855Z,7.20
2023-02-03T23:26:00.706Z,6.20
2023-02-03T23:28:29.221Z,4.50
2023-02-03T23:30:57.866Z,6.43
2023-02-03T23:33:26.376Z,6.07
2023-02-03T23:35:55.544Z,7.97
2023-02-03T23:38:24.032Z,8.67
2023-02-03T23:40:56.440Z,7.47
2023-02-03T23:43:24.942Z,5.80
2023-02-03T23:45:53.884Z,5.87
2023-02-03T23:48:22.277Z,3.93
2023-02-03T23:50:50.668Z,1.90
2023-02-03T23:53:19.334Z,3.07
2023-02-03T23:55:48.050Z,41.17
2023-02-03T23:58:17.865Z,17.07
